Flight Track Log - Related Links

Times and Time Zones

All times are in EDT time to prevent confusion due to time zone crossing. See the VH-ZFY flight status page for this flight to view local times or setup timezone preferences in your user account.

Time Position Orientation Groundspeed Altitude Reporting Facility
EDT Latitude Longitude Course Direction KTS MPH feet Rate Location/Type
Fri 08:43:02 PM -33.7799 151.0332 37° Northeast 94 108 2,100  Level Aus ATC (RADAR)
Fri 08:43:37 PM -33.7673 151.0446 37° Northeast 97 112 2,100  Level Aus ATC (RADAR)
Fri 08:44:12 PM -33.7544 151.0564 37° Northeast 100 115 2,100 -225 Level Aus ATC (RADAR)
Fri 08:44:57 PM -33.7516 151.0786 82° East 113 130 1,800 -286 Descending Aus ATC (RADAR)
Fri 08:45:57 PM -33.7689 151.1122 122° Southeast 115 132 1,600 -115 Descending Aus ATC (RADAR)
Fri 08:46:41 PM -33.7850 151.1356 130° Southeast 119 137 1,600 71 Level Aus ATC (RADAR)
Fri 08:47:21 PM -33.7983 151.1551 129° Southeast 112 129 1,700  Climbing Aus ATC (RADAR)
Fri 08:48:02 PM -33.8124 151.1744 131° Southeast 119 137 1,600 -59 Descending Aus ATC (RADAR)
Fri 08:49:02 PM -33.8329 151.2036 130° Southeast 111 128 1,600 -48 Level Aus ATC (RADAR)
Fri 08:50:06 PM -33.8325 151.2351 89° East 94 108 1,500  Descending Aus ATC (RADAR)
Fri 08:51:06 PM -33.8414 151.2351 180° South 93 107 1,600 120 Climbing Aus ATC (RADAR)
Fri 08:51:46 PM -33.8302 151.2496 47° Northeast 91 105 1,700 -75 Climbing Aus ATC (RADAR)
Fri 08:52:26 PM -33.8171 151.2656 45° Northeast 99 114 1,500 -71 Descending Aus ATC (RADAR)
Fri 08:53:11 PM -33.8014 151.2815 40° Northeast 98 113 1,600  Climbing Aus ATC (RADAR)
Fri 08:54:16 PM -33.7787 151.3015 36° Northeast 93 107 1,500 -92 Descending Aus ATC (RADAR)
Fri 08:57:55 PM -33.8491 151.2718 200° South 500 -274 Descending Aus ATC (Calculated)
Fri 08:59:00 PM -33.8704 151.2626 200° South  Level FlightAware Approximate
Fri 09:00:00 PM -33.8901 151.2541 200° South  Level FlightAware Approximate
Fri 09:01:00 PM -33.9098 151.2457 200° South  Level FlightAware Approximate
Fri 09:02:00 PM -33.9295 151.2372 200° South  Level FlightAware Approximate
Fri 09:03:00 PM -33.9492 151.2287 200° South  Level FlightAware Approximate
Fri 09:04:00 PM -33.9688 151.2202 200° South  Level FlightAware Approximate
Fri 09:05:00 PM -33.9885 151.2117 200° South  Level FlightAware Approximate
Fri 09:05:12 PM -33.8711 151.1760 181° South 1,000  Level Aus ATC (Calculated)
Fri 09:07:00 PM -33.9087 151.1750 181° South  Level FlightAware Approximate
Fri 09:08:00 PM -33.9296 151.1744 181° South  Level FlightAware Approximate
Fri 09:09:00 PM -33.9506 151.1738 181° South  Level FlightAware Approximate
Fri 09:10:00 PM -33.9715 151.1732 181° South  Level FlightAware Approximate
Fri 09:11:00 PM -33.9924 151.1726 181° South  Level FlightAware Approximate
Fri 09:12:00 PM -34.0133 151.1720 181° South  Level FlightAware Approximate
Fri 09:13:00 PM -34.0342 151.1714 181° South  Level FlightAware Approximate
Fri 09:14:00 PM -34.0220 151.1510 302° West  Level Estimated
Fri 09:15:00 PM -34.0144 151.1275 291° West  Level FlightAware Approximate
Fri 09:16:00 PM -34.0068 151.1040 291° West  Level FlightAware Approximate
Fri 09:17:00 PM -33.9991 151.0805 291° West  Level FlightAware Approximate
Fri 09:18:00 PM -33.9915 151.0570 291° West  Level FlightAware Approximate
Fri 09:19:00 PM -33.9839 151.0335 291° West  Level FlightAware Approximate
Fri 09:20:00 PM -33.9763 151.0100 291° West  Level FlightAware Approximate
Fri 09:20:01 PM -33.9367 150.8883 82° East  Level Aus ATC (Calculated)
Fri 09:21:38 PM -33.9306 150.9384 262° West  Level Aus ATC (Calculated)
Fri 09:23:00 PM -33.9347 150.9043 262° West  Level FlightAware Approximate
Fri 09:24:00 PM -33.9378 150.8793 262° West  Level FlightAware Approximate
Fri 09:25:00 PM -33.9347 150.9043 82° East  Level FlightAware Approximate
Fri 09:26:00 PM -33.9378 150.8793 262° West  Level FlightAware Approximate
Fri 09:27:00 PM -33.9347 150.9043 82° East  Level FlightAware Approximate
Fri 09:28:00 PM -33.9378 150.8793 262° West  Level FlightAware Approximate

Login

Don't have an account? Register now (free) for customized features, flight alerts, and more!